createdAt,value
2019-04-06T00:01:41.431Z,50.77
2019-04-06T00:04:07.261Z,58.17
2019-04-06T00:06:33.086Z,50.17
2019-04-06T00:08:58.914Z,50.27
2019-04-06T00:11:24.753Z,51.13
2019-04-06T00:13:50.702Z,54.03
2019-04-06T00:16:16.523Z,52.20
2019-04-06T00:18:42.365Z,51.60
2019-04-06T00:21:08.226Z,55.17
2019-04-06T00:23:34.083Z,52.30
2019-04-06T00:25:59.909Z,55.00
2019-04-06T00:28:25.748Z,49.17
2019-04-06T00:30:56.270Z,51.37
2019-04-06T00:33:24.033Z,49.80
2019-04-06T00:35:49.898Z,48.73
2019-04-06T00:38:15.729Z,33.73
2019-04-06T00:40:41.555Z,35.47
2019-04-06T00:43:07.578Z,38.53
2019-04-06T00:45:33.426Z,37.40
2019-04-06T00:47:59.298Z,39.73
2019-04-06T00:50:25.128Z,40.13
2019-04-06T00:52:50.996Z,34.67
2019-04-06T00:55:16.833Z,29.83
2019-04-06T00:57:42.661Z,30.07
2019-04-06T01:00:08.611Z,29.43
2019-04-06T01:02:34.450Z,31.37
2019-04-06T01:05:00.314Z,30.43
2019-04-06T01:07:26.206Z,31.17
2019-04-06T01:09:52.456Z,28.00
2019-04-06T01:12:18.283Z,26.00
2019-04-06T01:14:44.205Z,24.63
2019-04-06T01:17:10.054Z,27.70
2019-04-06T01:19:35.992Z,23.63
2019-04-06T01:22:01.909Z,21.90
2019-04-06T01:24:27.834Z,23.10
2019-04-06T01:26:53.751Z,22.70
2019-04-06T01:29:19.582Z,22.10
2019-04-06T01:31:45.436Z,23.47
2019-04-06T01:34:11.273Z,22.10
2019-04-06T01:36:37.098Z,22.57
2019-04-06T01:39:04.373Z,23.47
2019-04-06T01:41:30.207Z,22.30
2019-04-06T01:43:56.064Z,22.37
2019-04-06T01:46:21.904Z,23.30
2019-04-06T01:48:47.748Z,21.37
2019-04-06T01:51:13.624Z,23.27
2019-04-06T01:53:39.478Z,21.40
2019-04-06T01:56:05.318Z,22.50
2019-04-06T01:58:31.151Z,20.77
2019-04-06T02:01:10.803Z,21.90
2019-04-06T02:03:36.615Z,21.53
2019-04-06T02:06:02.805Z,21.40
2019-04-06T02:08:28.625Z,24.97
2019-04-06T02:10:54.447Z,23.63
2019-04-06T02:13:20.278Z,22.90
2019-04-06T02:15:46.114Z,24.53
2019-04-06T02:18:11.949Z,22.80
2019-04-06T02:20:37.836Z,23.30
2019-04-06T02:23:03.759Z,19.73
2019-04-06T02:25:29.750Z,22.97
2019-04-06T02:27:55.662Z,24.07
2019-04-06T02:30:23.416Z,26.57
2019-04-06T02:33:00.061Z,24.97
2019-04-06T02:35:36.771Z,21.90
2019-04-06T02:38:04.474Z,23.53
2019-04-06T02:40:34.764Z,25.03
2019-04-06T02:43:02.495Z,22.33
2019-04-06T02:45:28.362Z,23.53
2019-04-06T02:47:54.220Z,25.90
2019-04-06T02:50:20.155Z,22.97
2019-04-06T02:52:45.992Z,24.03
2019-04-06T02:55:11.834Z,24.23
2019-04-06T02:57:37.703Z,27.90
2019-04-06T03:00:04.919Z,21.07
2019-04-06T03:02:30.760Z,22.30
2019-04-06T03:04:56.612Z,24.37
2019-04-06T03:07:22.546Z,20.97
2019-04-06T03:09:48.481Z,26.07
2019-04-06T03:12:14.424Z,23.73
2019-04-06T03:14:40.243Z,21.47
2019-04-06T03:17:06.100Z,24.20
2019-04-06T03:19:31.936Z,23.30
2019-04-06T03:21:57.762Z,27.60
2019-04-06T03:24:23.631Z,28.13
2019-04-06T03:27:00.666Z,24.83
2019-04-06T03:29:17.286Z,24.57
2019-04-06T03:31:43.208Z,26.53
2019-04-06T03:34:09.054Z,31.13
2019-04-06T03:36:35.092Z,27.27
2019-04-06T03:39:01.042Z,26.83
2019-04-06T03:41:26.932Z,22.90
2019-04-06T03:43:52.843Z,23.80
2019-04-06T03:46:18.712Z,24.43
2019-04-06T03:48:44.660Z,29.57
2019-04-06T03:51:10.801Z,31.60
2019-04-06T03:53:36.723Z,24.63
2019-04-06T03:56:02.632Z,23.70
2019-04-06T03:58:28.556Z,26.50
2019-04-06T04:00:54.474Z,25.80
2019-04-06T04:03:20.445Z,23.53
2019-04-06T04:05:46.289Z,28.03
2019-04-06T04:08:12.240Z,25.77
2019-04-06T04:10:38.402Z,24.07
2019-04-06T04:13:04.422Z,25.00
2019-04-06T04:15:31.355Z,25.43
2019-04-06T04:17:57.279Z,25.07
2019-04-06T04:20:23.220Z,24.90
2019-04-06T04:22:49.457Z,26.73
2019-04-06T04:25:15.291Z,21.73
2019-04-06T04:27:41.149Z,28.37
2019-04-06T04:30:07.399Z,23.73
2019-04-06T04:32:33.231Z,27.27
2019-04-06T04:34:59.092Z,26.23
2019-04-06T04:37:25.266Z,24.33
2019-04-06T04:39:51.321Z,27.43
2019-04-06T04:42:17.219Z,24.83
2019-04-06T04:44:43.153Z,22.60
2019-04-06T04:47:09.027Z,24.23
2019-04-06T04:49:34.978Z,22.33
2019-04-06T04:52:00.830Z,27.70
2019-04-06T04:54:26.875Z,27.60
2019-04-06T04:56:52.813Z,25.30
2019-04-06T04:59:18.754Z,29.30
2019-04-06T05:01:44.574Z,30.03
2019-04-06T05:04:10.415Z,25.10
2019-04-06T05:06:36.619Z,27.27
2019-04-06T05:09:04.343Z,27.27
2019-04-06T05:11:30.181Z,27.07
2019-04-06T05:14:34.074Z,26.97
2019-04-06T05:16:59.910Z,26.53
2019-04-06T05:19:25.798Z,25.00
2019-04-06T05:21:51.714Z,27.50
2019-04-06T05:24:17.574Z,27.50
2019-04-06T05:26:43.580Z,29.40
2019-04-06T05:29:09.466Z,29.67
2019-04-06T05:31:35.283Z,30.30
2019-04-06T05:34:01.115Z,31.63
2019-04-06T05:36:26.975Z,27.37
2019-04-06T05:38:52.941Z,34.67
2019-04-06T05:41:19.152Z,26.07
2019-04-06T05:43:45.012Z,28.60
2019-04-06T05:46:10.874Z,25.97
2019-04-06T05:48:37.016Z,28.20
2019-04-06T05:51:03.174Z,29.73
2019-04-06T05:53:29.232Z,27.87
2019-04-06T05:55:55.440Z,25.67
2019-04-06T05:58:21.302Z,27.67
2019-04-06T06:00:47.170Z,30.60
2019-04-06T06:03:15.355Z,29.27
2019-04-06T06:05:41.199Z,30.30
2019-04-06T06:08:07.163Z,29.47
2019-04-06T06:10:33.774Z,35.20
2019-04-06T06:12:59.800Z,32.93
2019-04-06T06:15:25.687Z,31.63
2019-04-06T06:17:51.539Z,29.47
2019-04-06T06:20:17.480Z,31.97
2019-04-06T06:22:43.336Z,27.87
2019-04-06T06:25:09.778Z,31.67
2019-04-06T06:27:35.838Z,38.10
2019-04-06T06:30:03.594Z,29.53
2019-04-06T06:32:31.259Z,30.07
2019-04-06T06:34:57.161Z,29.40
2019-04-06T06:37:24.365Z,37.20
2019-04-06T06:39:50.190Z,29.30
2019-04-06T06:42:16.018Z,30.73
2019-04-06T06:44:42.121Z,29.50
2019-04-06T06:47:10.048Z,31.87
2019-04-06T06:49:35.980Z,34.13
2019-04-06T06:52:01.836Z,36.13
2019-04-06T06:54:27.716Z,31.30
2019-04-06T06:56:53.575Z,31.10
2019-04-06T06:59:19.650Z,33.17
2019-04-06T07:01:45.594Z,31.27
2019-04-06T07:04:11.453Z,31.33
2019-04-06T07:06:37.368Z,36.63
2019-04-06T07:09:05.540Z,31.60
2019-04-06T07:11:31.435Z,32.97
2019-04-06T07:13:57.350Z,37.03
2019-04-06T07:16:23.392Z,32.60
2019-04-06T07:18:49.360Z,31.73
2019-04-06T07:21:16.819Z,33.77
2019-04-06T07:23:42.948Z,34.70
2019-04-06T07:26:08.998Z,31.95
2019-04-06T07:28:38.147Z,32.08
2019-04-06T07:31:06.024Z,32.93
2019-04-06T07:33:32.289Z,33.73
2019-04-06T07:35:58.279Z,32.08
2019-04-06T07:38:24.336Z,30.45
2019-04-06T07:40:50.316Z,32.17
2019-04-06T07:43:16.168Z,31.50
2019-04-06T07:45:42.052Z,30.97
2019-04-06T07:48:07.997Z,31.90
2019-04-06T07:50:33.942Z,31.33
2019-04-06T07:52:59.951Z,33.25
2019-04-06T07:55:26.265Z,30.17
2019-04-06T07:57:54.594Z,34.45
2019-04-06T08:00:20.640Z,36.33
2019-04-06T08:02:46.625Z,35.30
2019-04-06T08:05:13.674Z,33.95
2019-04-06T08:07:40.354Z,34.43
2019-04-06T08:10:06.680Z,32.38
2019-04-06T08:12:32.559Z,38.58
2019-04-06T08:14:58.525Z,37.00
2019-04-06T08:17:24.483Z,39.67
2019-04-06T08:19:50.395Z,39.78
2019-04-06T08:22:16.617Z,35.48
2019-04-06T08:24:42.627Z,33.05
2019-04-06T08:27:08.631Z,40.00
2019-04-06T08:29:34.607Z,36.63
2019-04-06T08:32:00.591Z,38.05
2019-04-06T08:34:26.603Z,33.78
2019-04-06T08:36:52.453Z,33.40
2019-04-06T08:39:18.311Z,31.62
2019-04-06T08:41:44.369Z,36.42
2019-04-06T08:44:10.313Z,36.45
2019-04-06T08:46:36.161Z,34.38
2019-04-06T08:49:02.198Z,38.95
2019-04-06T08:51:28.173Z,33.70
2019-04-06T08:53:54.163Z,33.18
2019-04-06T08:56:20.065Z,34.27
2019-04-06T08:58:45.922Z,29.20
2019-04-06T09:01:13.938Z,31.65
2019-04-06T09:03:39.869Z,30.08
2019-04-06T09:06:05.739Z,32.88
2019-04-06T09:08:31.667Z,34.13
2019-04-06T09:10:57.517Z,35.73
2019-04-06T09:13:23.378Z,27.70
2019-04-06T09:15:49.491Z,29.90
2019-04-06T09:18:15.509Z,31.05
2019-04-06T09:20:41.558Z,33.73
2019-04-06T09:23:07.811Z,31.77
2019-04-06T09:25:33.707Z,33.55
2019-04-06T09:27:59.580Z,32.20
2019-04-06T09:30:25.720Z,31.75
2019-04-06T09:32:51.668Z,31.62
2019-04-06T09:35:17.508Z,28.38
2019-04-06T09:37:43.371Z,32.60
2019-04-06T09:40:09.615Z,31.10
2019-04-06T09:42:35.595Z,32.33
2019-04-06T09:45:12.261Z,26.90
2019-04-06T09:47:43.357Z,32.30
2019-04-06T09:50:17.732Z,32.88
2019-04-06T09:52:54.433Z,27.67
2019-04-06T09:55:34.229Z,26.97
2019-04-06T09:58:04.611Z,28.60
2019-04-06T10:00:41.430Z,29.48
2019-04-06T10:03:09.322Z,26.30
2019-04-06T10:05:37.306Z,27.42
2019-04-06T10:08:05.414Z,27.93
2019-04-06T10:10:33.334Z,27.50
2019-04-06T10:13:17.757Z,30.15
2019-04-06T10:16:02.210Z,24.82
2019-04-06T10:18:33.002Z,28.47
2019-04-06T10:21:04.118Z,27.80
2019-04-06T10:23:48.770Z,26.20
2019-04-06T10:26:25.428Z,24.87
2019-04-06T10:29:10.112Z,26.02
2019-04-06T10:31:47.108Z,25.32
2019-04-06T10:34:15.181Z,28.95
2019-04-06T10:36:43.060Z,28.32
2019-04-06T10:39:13.781Z,29.85
2019-04-06T10:41:44.170Z,24.07
2019-04-06T10:44:15.076Z,25.12
2019-04-06T10:46:51.770Z,22.82
2019-04-06T10:49:32.192Z,23.57
2019-04-06T10:52:18.271Z,26.02
2019-04-06T10:54:51.609Z,21.25
2019-04-06T10:57:19.952Z,24.63
2019-04-06T11:00:00.936Z,28.62
2019-04-06T11:02:40.512Z,22.32
2019-04-06T11:05:08.489Z,25.85
2019-04-06T11:07:53.073Z,24.02
2019-04-06T11:10:23.436Z,24.40
2019-04-06T11:13:03.192Z,23.83
2019-04-06T11:15:47.685Z,25.77
2019-04-06T11:18:15.629Z,23.40
2019-04-06T11:20:54.993Z,26.80
2019-04-06T11:23:22.755Z,25.48
2019-04-06T11:25:52.062Z,23.83
2019-04-06T11:28:34.906Z,22.15
2019-04-06T11:31:04.168Z,24.90
2019-04-06T11:33:32.240Z,25.65
2019-04-06T11:36:16.840Z,26.90
2019-04-06T11:38:44.779Z,24.47
2019-04-06T11:41:12.607Z,30.05
2019-04-06T11:43:42.909Z,24.55
2019-04-06T11:46:10.668Z,31.42
2019-04-06T11:48:38.668Z,25.40
2019-04-06T11:51:23.059Z,27.98
2019-04-06T11:54:05.934Z,25.70
2019-04-06T11:56:50.118Z,27.95
2019-04-06T11:59:26.118Z,23.77
2019-04-06T12:02:12.046Z,24.47
2019-04-06T12:04:56.612Z,27.32
2019-04-06T12:07:24.358Z,27.42
2019-04-06T12:09:54.913Z,26.85
2019-04-06T12:12:39.636Z,24.90
2019-04-06T12:15:07.439Z,26.07
2019-04-06T12:17:38.154Z,24.00
2019-04-06T12:20:23.975Z,24.65
2019-04-06T12:22:51.790Z,22.52
2019-04-06T12:25:19.710Z,26.52
2019-04-06T12:28:02.318Z,25.72
2019-04-06T12:30:39.330Z,30.10
2019-04-06T12:33:10.102Z,27.30
2019-04-06T12:35:38.337Z,25.57
2019-04-06T12:38:06.362Z,27.42
2019-04-06T12:40:40.182Z,22.87
2019-04-06T12:43:09.436Z,26.00
2019-04-06T12:45:40.061Z,26.10
2019-04-06T12:48:20.028Z,23.92
2019-04-06T12:50:47.804Z,25.17
2019-04-06T12:53:21.644Z,27.52
2019-04-06T12:56:04.749Z,25.92
2019-04-06T12:58:45.124Z,23.60
2019-04-06T13:01:25.070Z,23.42
2019-04-06T13:03:53.290Z,25.40
2019-04-06T13:06:32.877Z,23.83
2019-04-06T13:09:09.278Z,23.25
2019-04-06T13:11:49.339Z,23.12
2019-04-06T13:14:26.112Z,22.80
2019-04-06T13:16:59.846Z,22.58
2019-04-06T13:19:40.477Z,19.65
2019-04-06T13:22:23.415Z,24.32
2019-04-06T13:25:09.515Z,22.35
2019-04-06T13:27:37.350Z,19.73
2019-04-06T13:30:23.367Z,23.25
2019-04-06T13:33:00.273Z,19.02
2019-04-06T13:35:34.094Z,19.42
2019-04-06T13:38:19.948Z,21.45
2019-04-06T13:41:05.886Z,19.60
2019-04-06T13:43:36.518Z,20.80
2019-04-06T13:46:06.943Z,22.00
2019-04-06T13:48:34.679Z,21.27
2019-04-06T13:51:20.653Z,17.67
2019-04-06T13:54:05.075Z,16.90
2019-04-06T13:56:55.225Z,18.50
2019-04-06T13:59:31.977Z,19.42
2019-04-06T14:02:16.487Z,18.73
2019-04-06T14:05:00.855Z,16.20
2019-04-06T14:07:45.113Z,18.92
2019-04-06T14:10:29.483Z,17.55
2019-04-06T14:13:09.309Z,17.85
2019-04-06T14:15:53.747Z,21.90
2019-04-06T14:18:33.465Z,16.52
2019-04-06T14:21:07.062Z,15.75
2019-04-06T14:23:35.025Z,20.17
2019-04-06T14:26:08.843Z,20.20
2019-04-06T14:28:36.776Z,19.48
2019-04-06T14:31:04.583Z,21.77
2019-04-06T14:33:32.362Z,19.90
2019-04-06T14:36:02.991Z,20.15
2019-04-06T14:38:45.527Z,19.65
2019-04-06T14:41:29.764Z,18.48
2019-04-06T14:44:06.523Z,18.07
2019-04-06T14:46:34.380Z,19.23
2019-04-06T14:49:13.892Z,16.45
2019-04-06T14:51:34.754Z,17.10
2019-04-06T14:54:05.443Z,16.32
2019-04-06T14:56:49.977Z,19.37
2019-04-06T14:59:20.631Z,19.57
2019-04-06T15:01:57.144Z,18.48
2019-04-06T15:04:26.945Z,17.30
2019-04-06T15:07:11.588Z,15.43
2019-04-06T15:09:36.877Z,14.78
2019-04-06T15:12:04.941Z,17.20
2019-04-06T15:14:38.640Z,16.32
2019-04-06T15:17:06.459Z,14.03
2019-04-06T15:19:36.731Z,17.45
2019-04-06T15:22:10.239Z,15.63
2019-04-06T15:24:54.571Z,17.23
2019-04-06T15:27:30.595Z,14.95
2019-04-06T15:30:01.229Z,14.28
2019-04-06T15:32:31.605Z,16.30
2019-04-06T15:35:05.047Z,16.00
2019-04-06T15:37:41.617Z,17.30
2019-04-06T15:40:12.355Z,21.33
2019-04-06T15:42:49.091Z,20.88
2019-04-06T15:45:28.863Z,22.55
2019-04-06T15:48:05.603Z,20.75
2019-04-06T15:50:33.624Z,17.60
2019-04-06T15:53:07.514Z,18.98
2019-04-06T15:55:35.295Z,18.82
2019-04-06T15:58:03.045Z,19.62
2019-04-06T16:00:30.824Z,20.40
2019-04-06T16:02:58.847Z,21.40
2019-04-06T16:05:39.002Z,18.87
2019-04-06T16:08:23.418Z,18.82
2019-04-06T16:10:53.743Z,19.80
2019-04-06T16:13:22.605Z,18.60
2019-04-06T16:16:07.163Z,21.77
2019-04-06T16:18:43.684Z,21.40
2019-04-06T16:21:11.476Z,22.10
2019-04-06T16:23:39.321Z,21.52
2019-04-06T16:26:16.485Z,20.32
2019-04-06T16:28:44.698Z,22.58
2019-04-06T16:31:28.833Z,21.55
2019-04-06T16:33:56.602Z,19.42
2019-04-06T16:36:34.626Z,19.07
2019-04-06T16:41:48.302Z,21.70
2019-04-06T16:44:21.880Z,25.62
2019-04-06T16:47:04.989Z,19.50
2019-04-06T16:49:35.831Z,18.77
2019-04-06T16:52:12.619Z,19.17
2019-04-06T16:54:46.928Z,20.72
2019-04-06T16:57:23.896Z,19.52
2019-04-06T17:00:16.182Z,18.05
2019-04-06T17:02:33.517Z,21.80
2019-04-06T17:05:01.389Z,19.50
2019-04-06T17:07:41.296Z,18.70
2019-04-06T17:10:20.727Z,22.45
2019-04-06T17:12:54.042Z,15.65
2019-04-06T17:15:21.806Z,23.85
2019-04-06T17:17:49.538Z,19.32
2019-04-06T17:20:32.335Z,20.57
2019-04-06T17:23:02.663Z,22.52
2019-04-06T17:25:33.088Z,25.05
2019-04-06T17:28:04.272Z,21.25
2019-04-06T17:30:33.749Z,25.25
2019-04-06T17:33:18.571Z,21.40
2019-04-06T17:35:58.404Z,21.73
2019-04-06T17:38:31.824Z,20.52
2019-04-06T17:41:11.766Z,18.90
2019-04-06T17:43:48.622Z,18.77
2019-04-06T17:46:33.352Z,18.48
2019-04-06T17:49:04.366Z,20.15
2019-04-06T17:51:38.759Z,25.48
2019-04-06T17:54:23.103Z,18.02
2019-04-06T17:57:09.540Z,19.57
2019-04-06T17:59:55.413Z,21.73
2019-04-06T18:02:32.294Z,19.92
2019-04-06T18:05:16.873Z,23.20
2019-04-06T18:08:01.264Z,20.43
2019-04-06T18:10:32.341Z,20.62
2019-04-06T18:13:09.146Z,17.30
2019-04-06T18:15:35.033Z,20.95
2019-04-06T18:18:00.878Z,19.12
2019-04-06T18:20:28.045Z,19.95
2019-04-06T18:22:53.892Z,22.45
2019-04-06T18:25:19.753Z,16.00
2019-04-06T18:27:46.100Z,20.60
2019-04-06T18:30:16.079Z,19.60
2019-04-06T18:32:43.877Z,19.17
2019-04-06T18:35:10.809Z,18.50
2019-04-06T18:37:42.633Z,17.67
2019-04-06T18:40:13.600Z,19.50
2019-04-06T18:42:39.996Z,18.42
2019-04-06T18:45:06.361Z,21.48
2019-04-06T18:47:32.427Z,18.57
2019-04-06T18:49:58.427Z,20.70
2019-04-06T18:52:24.572Z,20.50
2019-04-06T18:54:50.664Z,22.17
2019-04-06T18:57:16.563Z,19.32
2019-04-06T18:59:42.620Z,16.17
2019-04-06T19:02:08.773Z,16.73
2019-04-06T19:04:34.681Z,19.67
2019-04-06T19:07:00.574Z,19.37
2019-04-06T19:09:26.707Z,19.60
2019-04-06T19:11:55.550Z,18.57
2019-04-06T19:14:20.358Z,18.87
2019-04-06T19:16:46.576Z,18.17
2019-04-06T19:19:12.623Z,18.62
2019-04-06T19:21:38.760Z,19.15
2019-04-06T19:24:04.651Z,18.65
2019-04-06T19:26:33.809Z,18.30
2019-04-06T19:29:01.875Z,25.15
2019-04-06T19:31:30.074Z,24.00
2019-04-06T19:33:58.869Z,22.95
2019-04-06T19:36:24.843Z,22.90
2019-04-06T19:38:53.487Z,36.25
2019-04-06T19:41:21.712Z,22.65
2019-04-06T19:43:47.841Z,20.77
2019-04-06T19:46:13.841Z,25.43
2019-04-06T19:48:40.776Z,19.57
2019-04-06T19:51:07.189Z,19.85
2019-04-06T19:53:36.167Z,20.05
2019-04-06T19:56:02.168Z,20.43
2019-04-06T19:58:28.144Z,19.98
2019-04-06T20:00:54.142Z,18.32
2019-04-06T20:03:20.433Z,19.42
2019-04-06T20:05:46.753Z,21.10
2019-04-06T20:08:12.738Z,17.67
2019-04-06T20:10:38.712Z,21.40
2019-04-06T20:13:05.028Z,18.50
2019-04-06T20:15:31.019Z,20.72
2019-04-06T20:17:57.017Z,18.80
2019-04-06T20:20:26.575Z,21.42
2019-04-06T20:22:52.765Z,24.10
2019-04-06T20:25:19.230Z,18.45
2019-04-06T20:27:45.223Z,16.70
2019-04-06T20:30:11.373Z,16.55
2019-04-06T20:32:37.315Z,17.20
2019-04-06T20:35:05.580Z,18.82
2019-04-06T20:37:31.867Z,24.07
2019-04-06T20:39:57.996Z,17.90
2019-04-06T20:42:23.913Z,26.68
2019-04-06T20:44:49.876Z,20.80
2019-04-06T20:47:15.915Z,22.27
2019-04-06T20:49:41.765Z,22.42
2019-04-06T20:52:07.754Z,20.62
2019-04-06T20:54:33.839Z,18.07
2019-04-06T20:56:59.799Z,17.98
2019-04-06T20:59:25.693Z,23.57
2019-04-06T21:01:52.101Z,20.35
2019-04-06T21:04:18.155Z,22.75
2019-04-06T21:06:43.983Z,24.23
2019-04-06T21:09:14.020Z,17.50
2019-04-06T21:11:40.435Z,21.25
2019-04-06T21:14:06.372Z,21.12
2019-04-06T21:16:32.320Z,21.00
2019-04-06T21:18:58.173Z,17.20
2019-04-06T21:21:24.055Z,20.60
2019-04-06T21:23:50.036Z,20.03
2019-04-06T21:26:16.116Z,20.97
2019-04-06T21:28:42.134Z,18.60
2019-04-06T21:31:08.057Z,19.12
2019-04-06T21:33:34.388Z,24.70
2019-04-06T21:36:00.549Z,19.55
2019-04-06T21:38:26.747Z,17.55
2019-04-06T21:40:55.338Z,22.50
2019-04-06T21:43:38.016Z,22.80
2019-04-06T21:46:02.900Z,19.45
2019-04-06T21:48:28.875Z,19.25
2019-04-06T21:50:54.866Z,20.82
2019-04-06T21:53:20.808Z,19.17
2019-04-06T21:55:47.135Z,20.55
2019-04-06T21:58:13.131Z,19.17
2019-04-06T22:00:41.090Z,19.27
2019-04-06T22:03:07.227Z,24.45
2019-04-06T22:05:33.106Z,25.35
2019-04-06T22:07:59.041Z,20.20
2019-04-06T22:10:24.904Z,19.37
2019-04-06T22:12:50.853Z,21.97
2019-04-06T22:15:16.774Z,25.00
2019-04-06T22:17:42.689Z,23.50
2019-04-06T22:20:08.856Z,21.30
2019-04-06T22:22:35.432Z,20.70
2019-04-06T22:25:02.226Z,21.93
2019-04-06T22:27:28.968Z,24.63
2019-04-06T22:29:55.512Z,19.32
2019-04-06T22:32:21.406Z,20.50
2019-04-06T22:34:47.570Z,25.70
2019-04-06T22:37:13.997Z,22.35
2019-04-06T22:39:39.922Z,21.97
2019-04-06T22:42:05.780Z,23.73
2019-04-06T22:44:31.767Z,21.80
2019-04-06T22:46:57.974Z,23.47
2019-04-06T22:49:23.924Z,23.67
2019-04-06T22:51:49.964Z,18.07
2019-04-06T22:54:16.299Z,18.07
2019-04-06T22:56:42.856Z,19.70
2019-04-06T22:59:08.788Z,18.17
2019-04-06T23:01:36.898Z,21.80
2019-04-06T23:04:21.546Z,19.85
2019-04-06T23:06:49.824Z,22.10
2019-04-06T23:09:15.801Z,27.83
2019-04-06T23:11:41.798Z,24.70
2019-04-06T23:14:07.636Z,20.70
2019-04-06T23:16:33.486Z,24.50
2019-04-06T23:18:59.615Z,22.70
2019-04-06T23:21:25.904Z,20.30
2019-04-06T23:23:51.963Z,22.80
2019-04-06T23:26:17.938Z,20.13
2019-04-06T23:28:44.630Z,25.13
2019-04-06T23:31:10.806Z,24.35
2019-04-06T23:33:36.844Z,20.87
2019-04-06T23:36:03.296Z,22.07
2019-04-06T23:38:29.365Z,19.50
2019-04-06T23:40:55.233Z,18.47
2019-04-06T23:43:21.208Z,21.50
2019-04-06T23:45:47.249Z,21.03
2019-04-06T23:48:13.081Z,21.00
2019-04-06T23:50:39.499Z,22.67
2019-04-06T23:53:05.445Z,21.90
2019-04-06T23:55:31.881Z,21.83
2019-04-06T23:57:59.784Z,27.00
